Time;durP1;ratioP1;P1;durP2;ratioP2;P2;SDS_P1;SDS_P2;PMS_P1;PMS_P2;Temp;Humidity;BMP_temperature;BMP_pressure;BME280_temperature;BME280_humidity;BME280_pressure;Samples;Min_cycle;Max_cycle;Signal;HPM_P1;HPM_P2
2023/03/15 00:00:11;;;;;;;7.27;6.57;;;4.70;99.90;;;;;;5021151;28;20189;-66
2023/03/15 00:02:37;;;;;;;8.33;6.73;;;4.80;99.90;;;;;;5039843;28;20269;-66
2023/03/15 00:05:03;;;;;;;6.70;6.10;;;4.80;99.90;;;;;;5050327;28;20615;-67
2023/03/15 00:07:30;;;;;;;8.57;7.60;;;4.90;99.90;;;;;;5045851;28;20229;-66
2023/03/15 00:09:55;;;;;;;8.10;6.67;;;4.90;99.90;;;;;;5065897;28;20538;-67
2023/03/15 00:12:24;;;;;;;6.90;6.23;;;4.90;99.90;;;;;;5061295;28;20205;-66
2023/03/15 00:14:50;;;;;;;9.23;7.40;;;5.00;99.90;;;;;;5070991;28;20561;-67
2023/03/15 00:17:16;;;;;;;7.60;6.50;;;5.00;99.90;;;;;;5071274;28;20192;-67
2023/03/15 00:19:42;;;;;;;11.60;7.50;;;5.20;99.90;;;;;;5071540;28;20188;-67
2023/03/15 00:22:08;;;;;;;9.40;6.97;;;5.10;99.90;;;;;;5057082;28;20265;-68
2023/03/15 00:24:34;;;;;;;6.47;5.87;;;5.10;99.90;;;;;;5060652;28;20199;-67
2023/03/15 00:26:59;;;;;;;11.87;6.70;;;5.10;99.90;;;;;;5059563;28;20181;-67
2023/03/15 00:29:25;;;;;;;10.07;6.23;;;5.00;99.90;;;;;;5063129;28;20616;-69
2023/03/15 00:31:51;;;;;;;12.23;6.60;;;5.10;99.90;;;;;;5066217;28;20205;-67
2023/03/15 00:34:22;;;;;;;7.03;5.93;;;5.20;99.90;;;;;;5058778;28;20530;-67
2023/03/15 00:36:48;;;;;;;6.90;6.00;;;5.30;99.90;;;;;;5065539;28;20682;-67
2023/03/15 00:39:14;;;;;;;9.53;7.10;;;5.30;99.90;;;;;;5059657;28;20268;-67
2023/03/15 00:41:40;;;;;;;7.77;6.70;;;5.20;99.90;;;;;;5068626;28;20196;-67
2023/03/15 00:44:06;;;;;;;9.53;7.27;;;5.10;99.90;;;;;;5070738;28;20479;-67
2023/03/15 00:46:31;;;;;;;8.30;7.37;;;5.10;99.90;;;;;;5063070;28;20638;-67
2023/03/15 00:48:57;;;;;;;8.37;6.53;;;5.20;99.90;;;;;;5055287;28;20265;-68
2023/03/15 00:51:23;;;;;;;6.90;6.13;;;5.50;99.90;;;;;;5059105;28;20213;-68
2023/03/15 00:53:51;;;;;;;11.40;5.90;;;5.40;99.90;;;;;;5052058;28;20539;-68
2023/03/15 00:56:19;;;;;;;7.67;6.13;;;5.30;99.90;;;;;;5062044;28;20209;-67
2023/03/15 00:58:45;;;;;;;10.73;5.63;;;5.30;99.90;;;;;;5054629;28;20170;-67
2023/03/15 01:01:17;;;;;;;8.00;6.17;;;5.20;99.90;;;;;;5060012;28;20192;-68
2023/03/15 01:03:44;;;;;;;8.70;5.57;;;5.30;99.90;;;;;;5066598;28;20178;-69
2023/03/15 01:06:12;;;;;;;6.77;5.37;;;5.40;99.90;;;;;;5063160;28;20258;-65
2023/03/15 01:08:38;;;;;;;6.20;5.23;;;5.50;99.90;;;;;;5044319;28;20178;-65
2023/03/15 01:11:07;;;;;;;10.00;5.57;;;5.60;99.90;;;;;;5009804;28;20206;-67
2023/03/15 01:13:33;;;;;;;4.47;4.03;;;5.50;99.90;;;;;;5037572;28;20202;-68
2023/03/15 01:15:59;;;;;;;7.67;5.37;;;5.50;99.90;;;;;;5030940;28;20174;-67
2023/03/15 01:18:24;;;;;;;4.47;3.73;;;5.60;99.90;;;;;;5037161;28;20179;-67
2023/03/15 01:20:50;;;;;;;7.67;5.17;;;5.50;99.90;;;;;;5051484;28;20166;-67
2023/03/15 01:23:16;;;;;;;4.33;3.90;;;5.60;99.90;;;;;;5048741;28;20269;-67
2023/03/15 01:25:41;;;;;;;4.63;3.03;;;5.60;99.90;;;;;;5054410;28;20252;-67
2023/03/15 01:28:07;;;;;;;4.43;3.53;;;5.60;99.90;;;;;;5020445;28;20182;-67
2023/03/15 01:30:33;;;;;;;10.07;2.93;;;5.70;99.90;;;;;;5042532;28;20170;-64
2023/03/15 01:32:59;;;;;;;3.10;2.70;;;5.60;99.90;;;;;;5049476;28;20234;-65
2023/03/15 01:35:24;;;;;;;6.73;4.13;;;5.70;99.90;;;;;;5027085;28;20231;-65
2023/03/15 01:37:51;;;;;;;5.73;2.20;;;5.80;99.90;;;;;;5038391;28;20183;-65
2023/03/15 01:40:17;;;;;;;2.10;1.93;;;5.70;99.90;;;;;;5034493;28;20190;-66
2023/03/15 01:43:04;;;;;;;1.93;1.83;;;5.50;99.90;;;;;;5047071;28;20265;-65
2023/03/15 01:46:01;;;;;;;3.77;1.67;;;5.50;99.90;;;;;;5049610;28;20283;-66
2023/03/15 01:48:43;;;;;;;2.63;1.87;;;5.50;99.90;;;;;;5044632;28;20631;-66
2023/03/15 01:51:24;;;;;;;6.40;1.87;;;5.60;99.90;;;;;;5043844;28;20174;-66
2023/03/15 01:53:58;;;;;;;2.10;1.70;;;5.50;99.90;;;;;;5041537;28;20174;-66
2023/03/15 01:56:26;;;;;;;2.50;1.80;;;5.50;99.90;;;;;;5044197;28;20250;-66
2023/03/15 01:58:54;;;;;;;1.67;1.67;;;5.40;99.90;;;;;;5047868;28;20217;-66
2023/03/15 02:01:20;;;;;;;2.20;2.03;;;5.40;99.90;;;;;;5046155;28;20257;-66
2023/03/15 02:03:51;;;;;;;2.23;2.03;;;5.50;99.90;;;;;;5044714;28;20514;-66
2023/03/15 02:06:19;;;;;;;1.70;1.60;;;5.50;99.90;;;;;;5052793;28;20221;-66
2023/03/15 02:08:52;;;;;;;2.03;1.93;;;5.50;99.90;;;;;;5048662;28;20173;-67
2023/03/15 02:11:20;;;;;;;2.57;2.37;;;5.50;99.90;;;;;;5042489;28;20268;-67
2023/03/15 02:13:48;;;;;;;2.37;2.13;;;5.60;99.90;;;;;;5047926;28;20268;-66
2023/03/15 02:16:15;;;;;;;4.20;2.27;;;5.60;99.90;;;;;;5040371;28;20193;-67
2023/03/15 02:18:41;;;;;;;2.30;2.10;;;5.60;99.90;;;;;;5035784;28;20174;-66
2023/03/15 02:21:21;;;;;;;2.00;1.80;;;5.50;99.90;;;;;;5046292;28;20630;-66
2023/03/15 02:24:11;;;;;;;1.77;1.70;;;5.50;99.90;;;;;;5049152;28;20174;-67
2023/03/15 02:26:44;;;;;;;5.17;2.20;;;5.50;99.90;;;;;;5018968;28;20187;-66
2023/03/15 02:29:10;;;;;;;2.00;1.90;;;5.60;99.90;;;;;;5038814;28;20205;-67
2023/03/15 02:31:36;;;;;;;2.40;2.20;;;5.50;99.90;;;;;;5046822;28;20206;-67
2023/03/15 02:34:05;;;;;;;2.40;2.17;;;5.60;99.90;;;;;;5038430;28;20236;-66
2023/03/15 02:36:31;;;;;;;2.57;2.37;;;5.60;99.90;;;;;;5032474;28;20182;-66
2023/03/15 02:38:57;;;;;;;3.47;2.40;;;5.60;99.90;;;;;;5042209;28;20548;-67
2023/03/15 02:41:25;;;;;;;2.83;2.17;;;5.60;99.90;;;;;;5043253;28;20178;-66
2023/03/15 02:43:54;;;;;;;3.90;1.70;;;5.50;99.90;;;;;;5040401;28;20181;-66
2023/03/15 02:46:21;;;;;;;2.73;2.37;;;5.50;99.90;;;;;;5042380;28;20522;-66
2023/03/15 02:48:48;;;;;;;3.40;2.27;;;5.50;99.90;;;;;;5034821;28;20175;-66
2023/03/15 02:51:22;;;;;;;2.63;2.17;;;5.50;99.90;;;;;;5041381;28;20260;-66
2023/03/15 02:53:48;;;;;;;4.70;2.27;;;5.50;99.90;;;;;;5021683;28;20530;-67
2023/03/15 02:56:14;;;;;;;2.40;2.30;;;5.60;99.90;;;;;;5033305;28;20187;-67
2023/03/15 02:58:40;;;;;;;4.37;2.50;;;5.70;99.90;;;;;;5044355;28;20179;-67
2023/03/15 03:01:07;;;;;;;2.63;2.27;;;5.60;99.90;;;;;;5038313;28;20178;-67
2023/03/15 03:03:32;;;;;;;2.37;2.00;;;5.50;99.90;;;;;;5051711;28;20200;-67
2023/03/15 03:05:58;;;;;;;3.33;2.50;;;5.50;99.90;;;;;;5035053;28;20647;-67
2023/03/15 03:08:24;;;;;;;2.90;2.40;;;5.40;99.90;;;;;;5042014;28;20208;-67
2023/03/15 03:10:49;;;;;;;6.07;2.60;;;5.40;99.90;;;;;;5031728;28;20198;-67
2023/03/15 03:13:15;;;;;;;6.53;2.93;;;5.40;99.90;;;;;;5050005;28;20240;-67
2023/03/15 03:15:44;;;;;;;2.37;2.17;;;5.50;99.90;;;;;;5045925;28;20210;-67
2023/03/15 03:18:10;;;;;;;2.03;1.93;;;5.40;99.90;;;;;;5032327;28;20179;-67
2023/03/15 03:20:36;;;;;;;2.30;2.13;;;5.50;99.90;;;;;;5038924;28;20685;-67
2023/03/15 03:23:04;;;;;;;6.20;2.70;;;5.50;99.90;;;;;;5020109;28;20186;-67
2023/03/15 03:25:31;;;;;;;2.73;2.23;;;5.50;99.90;;;;;;5045022;28;20175;-67
2023/03/15 03:27:58;;;;;;;3.80;3.50;;;5.50;99.90;;;;;;5047292;28;20182;-67
2023/03/15 03:30:23;;;;;;;3.83;3.47;;;5.40;99.90;;;;;;5042049;28;20189;-67
2023/03/15 03:32:50;;;;;;;4.40;2.50;;;5.30;99.90;;;;;;5050377;28;20201;-67
2023/03/15 03:35:15;;;;;;;5.43;2.53;;;5.40;99.90;;;;;;5021706;28;20223;-67
2023/03/15 03:37:41;;;;;;;2.60;2.40;;;5.50;99.90;;;;;;5038903;28;20258;-67
2023/03/15 03:40:08;;;;;;;6.50;2.67;;;5.50;99.90;;;;;;5034197;28;20530;-67
2023/03/15 03:42:34;;;;;;;4.80;3.17;;;5.50;99.90;;;;;;5033243;28;20190;-67
2023/03/15 03:45:00;;;;;;;3.60;2.97;;;5.50;99.90;;;;;;5016233;28;20178;-67
2023/03/15 03:47:26;;;;;;;2.87;2.67;;;5.60;99.90;;;;;;5023029;28;20265;-67
2023/03/15 03:49:52;;;;;;;3.03;2.67;;;5.60;99.90;;;;;;5016768;28;20615;-67
2023/03/15 03:52:17;;;;;;;5.07;3.07;;;5.70;99.90;;;;;;5033520;28;20210;-67
2023/03/15 03:54:43;;;;;;;6.57;3.33;;;5.70;99.90;;;;;;5033571;28;20255;-67
2023/03/15 03:57:09;;;;;;;7.23;3.83;;;5.70;99.90;;;;;;5033478;28;20261;-67
2023/03/15 03:59:35;;;;;;;3.47;3.17;;;5.70;99.90;;;;;;5018347;28;20229;-67
2023/03/15 04:02:01;;;;;;;3.30;3.07;;;5.60;99.90;;;;;;5038410;28;20186;-67
2023/03/15 04:04:26;;;;;;;3.47;3.00;;;5.60;99.90;;;;;;5018070;28;20178;-67
2023/03/15 04:06:53;;;;;;;6.47;4.07;;;5.50;99.90;;;;;;5033234;28;20234;-67
2023/03/15 04:09:20;;;;;;;3.73;3.40;;;5.50;99.90;;;;;;5043920;28;20174;-67
2023/03/15 04:11:46;;;;;;;4.03;3.57;;;5.40;99.90;;;;;;5047528;28;20198;-67
2023/03/15 04:14:13;;;;;;;2.70;2.43;;;5.40;99.90;;;;;;5049611;28;20245;-67
2023/03/15 04:16:39;;;;;;;4.17;3.73;;;5.50;99.90;;;;;;5049881;28;20266;-67
2023/03/15 04:19:06;;;;;;;5.03;3.17;;;5.50;99.90;;;;;;5046948;28;20259;-66
2023/03/15 04:21:33;;;;;;;5.63;3.63;;;5.50;99.90;;;;;;5026813;28;20185;-66
2023/03/15 04:23:59;;;;;;;4.07;3.50;;;5.40;99.90;;;;;;5038587;28;20308;-66
2023/03/15 04:26:25;;;;;;;3.20;3.00;;;5.40;99.90;;;;;;5001093;28;20183;-66
2023/03/15 04:28:56;;;;;;;5.07;3.50;;;5.20;99.90;;;;;;5026854;28;20182;-66
2023/03/15 04:31:26;;;;;;;4.20;3.17;;;5.20;99.90;;;;;;5030273;28;20174;-66
2023/03/15 04:33:55;;;;;;;5.03;4.20;;;5.00;99.90;;;;;;5036232;28;20171;-67
2023/03/15 04:36:23;;;;;;;6.07;3.67;;;5.00;99.90;;;;;;5030970;28;20210;-67
2023/03/15 04:38:49;;;;;;;5.80;4.30;;;5.00;99.90;;;;;;5050941;28;20178;-66
2023/03/15 04:41:16;;;;;;;3.93;3.63;;;4.90;99.90;;;;;;5039772;28;20228;-66
2023/03/15 04:43:42;;;;;;;3.47;3.23;;;4.80;99.90;;;;;;5045554;28;20253;-67
2023/03/15 04:46:08;;;;;;;5.97;3.83;;;4.80;99.90;;;;;;5024727;28;20182;-66
2023/03/15 04:48:35;;;;;;;4.63;4.23;;;4.60;99.90;;;;;;5040708;28;20265;-66
2023/03/15 04:51:00;;;;;;;3.43;3.13;;;4.60;99.90;;;;;;5039187;28;20580;-66
2023/03/15 04:53:26;;;;;;;7.73;4.50;;;4.60;99.90;;;;;;5037769;28;20241;-67
2023/03/15 04:55:52;;;;;;;9.17;4.67;;;4.50;99.90;;;;;;5036058;28;20578;-67
2023/03/15 04:58:18;;;;;;;8.00;4.47;;;4.50;99.90;;;;;;5037617;28;20191;-67
2023/03/15 05:00:44;;;;;;;4.17;3.60;;;4.50;99.90;;;;;;5044933;28;20179;-67
2023/03/15 05:03:09;;;;;;;4.27;3.97;;;4.40;99.90;;;;;;5045862;28;20213;-67
2023/03/15 05:05:35;;;;;;;5.37;4.13;;;4.40;99.90;;;;;;5035538;28;20183;-67
2023/03/15 05:08:01;;;;;;;5.73;4.63;;;4.30;99.90;;;;;;5038912;28;20225;-67
2023/03/15 05:10:28;;;;;;;6.47;4.80;;;4.40;99.90;;;;;;5023231;28;20182;-67
2023/03/15 05:12:54;;;;;;;4.90;4.47;;;4.40;99.90;;;;;;5041769;28;20224;-68
2023/03/15 05:15:20;;;;;;;5.60;4.57;;;4.30;99.90;;;;;;5046680;28;20185;-67
2023/03/15 05:17:47;;;;;;;8.80;5.00;;;4.30;99.90;;;;;;5020632;28;20581;-67
2023/03/15 05:20:15;;;;;;;9.70;4.87;;;4.30;99.90;;;;;;5031083;28;20193;-67
2023/03/15 05:22:41;;;;;;;5.30;4.37;;;4.30;99.90;;;;;;5031489;28;20186;-66
2023/03/15 05:25:09;;;;;;;6.23;5.53;;;4.10;99.90;;;;;;5035695;28;20533;-67
2023/03/15 05:27:35;;;;;;;9.43;4.83;;;4.20;99.90;;;;;;5043795;28;20182;-66
2023/03/15 05:30:04;;;;;;;5.90;5.30;;;4.20;99.90;;;;;;5037234;28;20516;-66
2023/03/15 05:32:33;;;;;;;6.70;5.00;;;4.10;99.90;;;;;;5044268;28;20201;-65
2023/03/15 05:35:02;;;;;;;7.90;5.20;;;4.10;99.90;;;;;;5035417;28;20183;-66
2023/03/15 05:37:29;;;;;;;5.43;4.57;;;4.10;99.90;;;;;;5020931;28;20264;-66
2023/03/15 05:39:55;;;;;;;9.83;5.43;;;4.20;99.90;;;;;;5007024;28;20245;-64
2023/03/15 05:42:29;;;;;;;7.13;4.70;;;4.20;99.90;;;;;;5046039;28;20191;-64
2023/03/15 05:44:56;;;;;;;6.90;5.27;;;4.30;99.90;;;;;;5016337;28;20193;-65
2023/03/15 05:47:22;;;;;;;9.67;6.40;;;4.20;99.90;;;;;;5034282;28;20179;-63
2023/03/15 05:49:48;;;;;;;7.63;5.17;;;4.10;99.90;;;;;;5018264;28;20171;-65
2023/03/15 05:52:15;;;;;;;5.17;4.63;;;4.10;99.90;;;;;;5037361;28;20289;-65
2023/03/15 05:54:41;;;;;;;5.57;4.90;;;4.10;99.90;;;;;;5033931;28;20205;-65
2023/03/15 05:57:07;;;;;;;5.80;4.70;;;4.00;99.90;;;;;;5016990;28;20210;-66
2023/03/15 05:59:32;;;;;;;5.90;5.07;;;4.00;99.90;;;;;;5032522;28;20193;-66
2023/03/15 06:01:58;;;;;;;6.07;5.20;;;4.00;99.90;;;;;;5016668;28;20270;-66
2023/03/15 06:04:23;;;;;;;9.10;5.60;;;4.10;99.90;;;;;;5034120;28;20170;-67
2023/03/15 06:06:50;;;;;;;7.40;5.53;;;4.10;99.90;;;;;;5038278;28;20559;-65
2023/03/15 06:09:16;;;;;;;7.90;5.70;;;4.20;99.90;;;;;;5020675;28;20189;-66
2023/03/15 06:11:42;;;;;;;9.57;6.20;;;4.10;99.90;;;;;;5026751;28;20335;-66
2023/03/15 06:14:07;;;;;;;6.77;5.40;;;4.10;99.90;;;;;;5045357;28;20633;-64
2023/03/15 06:16:33;;;;;;;10.50;5.30;;;4.20;99.90;;;;;;5031882;28;20252;-63
2023/03/15 06:18:59;;;;;;;7.03;5.73;;;4.30;99.90;;;;;;5042603;28;20187;-65
2023/03/15 06:21:24;;;;;;;11.60;6.23;;;4.40;99.90;;;;;;5041056;28;20178;-64
2023/03/15 06:23:50;;;;;;;6.47;5.27;;;4.40;99.90;;;;;;5025635;28;20638;-65
2023/03/15 06:26:18;;;;;;;12.03;7.17;;;4.50;99.90;;;;;;5026640;28;20221;-65
2023/03/15 06:28:44;;;;;;;12.97;6.00;;;4.50;99.90;;;;;;5019822;28;20186;-64
2023/03/15 06:31:12;;;;;;;11.63;6.17;;;4.60;99.90;;;;;;5037023;28;20175;-65
2023/03/15 06:33:37;;;;;;;10.53;6.13;;;4.60;99.90;;;;;;5044587;28;20289;-64
2023/03/15 06:36:04;;;;;;;8.20;5.47;;;4.70;99.90;;;;;;5001599;28;20266;-65
2023/03/15 06:38:30;;;;;;;11.27;6.23;;;4.60;99.90;;;;;;5044352;28;20189;-65
2023/03/15 06:41:03;;;;;;;9.17;6.93;;;4.60;99.90;;;;;;5044910;28;20261;-65
2023/03/15 06:43:30;;;;;;;9.23;6.67;;;4.70;99.90;;;;;;5030469;28;20214;-65
2023/03/15 06:45:58;;;;;;;10.67;6.53;;;4.70;99.90;;;;;;5024062;28;20252;-65
2023/03/15 06:48:27;;;;;;;11.93;6.83;;;4.70;99.90;;;;;;5011011;28;20185;-65
2023/03/15 06:50:53;;;;;;;9.27;6.53;;;4.50;99.90;;;;;;5051619;28;20195;-65
2023/03/15 06:53:19;;;;;;;7.37;6.27;;;4.50;99.90;;;;;;5022106;28;20206;-65
2023/03/15 06:55:46;;;;;;;10.40;6.10;;;4.50;99.90;;;;;;5022855;28;20192;-65
2023/03/15 06:58:12;;;;;;;7.00;5.37;;;4.50;99.90;;;;;;5026314;28;20261;-66
2023/03/15 07:00:38;;;;;;;10.70;5.90;;;4.40;99.90;;;;;;5038332;28;20698;-65
2023/03/15 07:03:04;;;;;;;7.57;5.77;;;4.50;99.90;;;;;;5047502;28;20638;-66
2023/03/15 07:05:30;;;;;;;12.40;6.67;;;4.50;99.90;;;;;;5026471;28;20197;-66
2023/03/15 07:07:56;;;;;;;12.13;6.63;;;4.40;99.90;;;;;;5044826;28;20222;-66
2023/03/15 07:10:22;;;;;;;8.67;6.47;;;4.50;99.90;;;;;;5053795;28;20182;-66
2023/03/15 07:12:47;;;;;;;11.27;6.70;;;4.60;99.90;;;;;;5034320;28;20268;-66
2023/03/15 07:15:13;;;;;;;7.13;5.87;;;4.60;99.90;;;;;;5044638;28;20202;-66
2023/03/15 07:17:40;;;;;;;10.27;6.60;;;4.60;99.90;;;;;;5049463;28;20189;-66
2023/03/15 07:20:06;;;;;;;12.43;7.70;;;5.00;99.90;;;;;;5034236;28;20186;-64
2023/03/15 07:22:33;;;;;;;12.33;8.07;;;5.90;99.90;;;;;;5039272;28;20193;-64
2023/03/15 07:24:58;;;;;;;14.60;8.13;;;7.40;99.90;;;;;;5040590;28;20189;-64
2023/03/15 07:27:24;;;;;;;14.80;8.53;;;8.90;99.90;;;;;;5050503;28;20178;-66
2023/03/15 07:29:50;;;;;;;16.00;8.43;;;10.50;99.90;;;;;;5036181;28;20178;-64
2023/03/15 07:32:16;;;;;;;15.68;9.98;;;11.50;99.90;;;;;;4995801;28;20654;-65
2023/03/15 07:34:41;;;;;;;18.77;8.40;;;12.50;99.90;;;;;;5033980;28;20241;-67
2023/03/15 07:37:07;;;;;;;9.55;6.72;;;13.30;99.90;;;;;;5050242;28;20638;-64
2023/03/15 07:39:33;;;;;;;8.80;5.60;;;14.00;99.90;;;;;;5052012;28;20188;-65
2023/03/15 07:41:59;;;;;;;8.52;6.10;;;14.50;99.90;;;;;;5039257;28;20192;-66
2023/03/15 07:44:25;;;;;;;6.72;5.30;;;14.90;99.90;;;;;;5044004;28;20195;-65
2023/03/15 07:46:51;;;;;;;6.70;5.53;;;15.40;99.90;;;;;;5043569;28;20186;-65
2023/03/15 07:49:16;;;;;;;4.38;3.97;;;15.80;99.90;;;;;;5034605;28;20197;-66
2023/03/15 07:51:42;;;;;;;8.90;4.18;;;16.20;99.90;;;;;;5033731;28;20603;-65
2023/03/15 07:54:08;;;;;;;6.05;4.35;;;16.10;99.90;;;;;;5047504;28;20175;-64
2023/03/15 07:56:34;;;;;;;7.07;4.50;;;16.30;99.90;;;;;;5020794;28;20183;-65
2023/03/15 07:59:00;;;;;;;5.88;4.65;;;15.70;99.90;;;;;;5021151;28;20202;-66
2023/03/15 08:01:26;;;;;;;4.25;3.78;;;16.00;99.90;;;;;;5049663;28;20186;-65
2023/03/15 08:03:51;;;;;;;7.32;4.35;;;15.90;99.90;;;;;;5043623;28;20262;-66
2023/03/15 08:06:17;;;;;;;6.00;4.70;;;16.10;99.90;;;;;;5056352;28;20280;-66
2023/03/15 08:08:43;;;;;;;11.10;4.53;;;15.40;99.90;;;;;;5060407;28;20184;-66
2023/03/15 08:11:09;;;;;;;4.65;4.20;;;15.10;99.90;;;;;;5068388;28;20181;-66
2023/03/15 08:13:36;;;;;;;5.88;4.88;;;15.20;99.90;;;;;;5070981;28;20213;-66
2023/03/15 08:16:01;;;;;;;8.48;4.30;;;15.20;99.90;;;;;;5070308;28;20242;-66
2023/03/15 08:18:30;;;;;;;4.28;3.88;;;15.40;99.90;;;;;;5065501;28;20185;-66
2023/03/15 08:20:56;;;;;;;5.65;4.57;;;16.10;99.90;;;;;;5067461;28;20248;-65
2023/03/15 08:23:22;;;;;;;4.70;4.30;;;16.10;99.90;;;;;;5057878;28;20205;-66
2023/03/15 08:25:48;;;;;;;11.05;4.25;;;15.50;99.90;;;;;;5063784;28;20192;-65
2023/03/15 08:28:15;;;;;;;6.78;3.72;;;14.40;99.90;;;;;;5070435;28;20178;-65
2023/03/15 08:30:41;;;;;;;9.32;4.70;;;13.10;99.90;;;;;;5073468;28;20169;-65
2023/03/15 08:33:07;;;;;;;5.68;4.68;;;12.60;99.90;;;;;;5056368;28;20248;-65
2023/03/15 08:35:33;;;;;;;5.75;4.28;;;12.30;99.90;;;;;;5071407;28;20182;-65
2023/03/15 08:38:01;;;;;;;6.97;5.68;;;11.60;99.90;;;;;;5067665;28;20533;-69
2023/03/15 08:40:28;;;;;;;6.95;4.03;;;11.30;99.90;;;;;;5056761;28;20176;-65
2023/03/15 08:42:54;;;;;;;5.95;4.80;;;10.90;99.90;;;;;;5053218;28;20657;-65
2023/03/15 08:45:22;;;;;;;5.45;3.78;;;10.40;99.90;;;;;;5068222;28;20181;-65
2023/03/15 08:47:48;;;;;;;4.68;4.18;;;10.40;99.90;;;;;;5067873;28;20254;-64
2023/03/15 08:50:15;;;;;;;6.05;5.03;;;10.10;99.90;;;;;;5043092;28;20270;-65
2023/03/15 08:52:42;;;;;;;4.03;3.60;;;9.80;99.90;;;;;;5069999;28;20201;-64
2023/03/15 08:55:08;;;;;;;5.20;3.15;;;9.30;99.90;;;;;;5058740;28;20190;-65
2023/03/15 08:57:34;;;;;;;6.30;3.40;;;9.00;99.90;;;;;;5057061;28;20185;-64
2023/03/15 09:00:06;;;;;;;4.73;2.50;;;8.80;99.90;;;;;;5059323;28;20656;-64
2023/03/15 09:02:31;;;;;;;3.10;2.47;;;8.40;99.90;;;;;;5068270;28;20621;-64
2023/03/15 09:04:57;;;;;;;5.53;3.63;;;8.10;99.90;;;;;;5061307;28;20272;-64
2023/03/15 09:07:22;;;;;;;4.83;4.33;;;8.10;99.90;;;;;;5039109;28;20246;-64
2023/03/15 09:09:48;;;;;;;6.23;4.77;;;8.30;99.90;;;;;;5037388;28;20182;-64
2023/03/15 09:12:15;;;;;;;16.40;5.63;;;8.50;99.90;;;;;;5037194;28;20203;-64
2023/03/15 09:14:41;;;;;;;8.87;5.77;;;8.60;99.90;;;;;;5028019;28;20194;-64
2023/03/15 09:17:07;;;;;;;7.60;5.83;;;8.70;99.90;;;;;;5033492;28;20182;-64
2023/03/15 09:19:32;;;;;;;5.30;4.60;;;8.80;99.90;;;;;;5024624;28;20209;-64
2023/03/15 09:21:58;;;;;;;3.00;2.60;;;8.60;99.90;;;;;;5039675;28;20635;-64
2023/03/15 09:24:23;;;;;;;5.13;3.40;;;8.70;99.90;;;;;;5046849;28;20182;-64
2023/03/15 09:26:49;;;;;;;7.63;3.47;;;8.90;99.90;;;;;;5044652;28;20177;-70
2023/03/15 09:29:15;;;;;;;4.50;3.53;;;9.10;99.90;;;;;;5034370;28;20252;-64
2023/03/15 09:31:40;;;;;;;4.67;3.40;;;9.20;99.90;;;;;;5040640;28;20548;-64
2023/03/15 09:34:06;;;;;;;3.50;3.20;;;9.30;99.90;;;;;;5038626;28;20268;-64
2023/03/15 09:36:32;;;;;;;5.40;3.73;;;9.50;99.90;;;;;;5032430;28;20197;-64
2023/03/15 09:38:59;;;;;;;3.33;2.87;;;9.70;99.90;;;;;;5041201;28;20182;-64
2023/03/15 09:41:40;;;;;;;3.90;3.50;;;9.60;99.90;;;;;;5053456;28;20243;-65
2023/03/15 09:44:11;;;;;;;3.83;2.17;;;9.70;99.90;;;;;;5042400;28;20252;-63
2023/03/15 09:47:09;;;;;;;2.00;1.90;;;9.80;99.90;;;;;;5052684;28;20189;-64
2023/03/15 09:49:53;;;;;;;4.00;3.53;;;9.70;99.90;;;;;;5023090;28;20218;-65
2023/03/15 09:52:19;;;;;;;2.53;2.33;;;9.50;99.90;;;;;;5034451;28;20205;-64
2023/03/15 09:55:11;;;;;;;5.40;3.17;;;9.40;99.90;;;;;;5046995;28;20688;-65
2023/03/15 09:57:49;;;;;;;5.50;2.80;;;9.40;99.90;;;;;;5048458;28;20174;-64
2023/03/15 10:00:20;;;;;;;2.87;2.67;;;9.50;99.90;;;;;;5039301;28;20182;-65
2023/03/15 10:03:08;;;;;;;6.20;3.27;;;9.40;99.90;;;;;;5040626;28;20201;-64
2023/03/15 10:05:42;;;;;;;6.73;3.50;;;9.30;99.90;;;;;;5040096;28;20586;-69
2023/03/15 10:08:10;;;;;;;6.00;4.10;;;9.40;99.90;;;;;;5064341;28;20218;-65
2023/03/15 10:10:45;;;;;;;3.53;3.10;;;9.50;99.90;;;;;;5070441;28;20228;-65
2023/03/15 10:13:29;;;;;;;3.30;2.87;;;9.80;99.90;;;;;;5054453;28;20209;-66
2023/03/15 10:16:32;;;;;;;4.97;2.47;;;10.20;99.90;;;;;;5064031;28;20190;-64
2023/03/15 10:19:13;;;;;;;4.53;2.90;;;10.20;99.90;;;;;;5069563;28;20641;-64
2023/03/15 10:21:58;;;;;;;2.47;2.33;;;10.30;99.90;;;;;;5061692;28;20169;-68
2023/03/15 10:24:36;;;;;;;4.63;2.67;;;10.30;99.90;;;;;;5069384;28;20518;-65
2023/03/15 10:27:14;;;;;;;3.00;2.80;;;10.40;99.90;;;;;;5058613;28;20177;-64
2023/03/15 10:29:39;;;;;;;2.13;1.98;;;10.60;99.90;;;;;;5054845;28;20181;-65
2023/03/15 10:32:13;;;;;;;2.70;2.17;;;10.60;99.90;;;;;;5054060;28;20569;-65
2023/03/15 10:34:38;;;;;;;2.70;2.50;;;10.50;99.90;;;;;;5053937;28;20536;-65
2023/03/15 10:37:05;;;;;;;6.53;3.97;;;10.80;99.90;;;;;;5067928;28;20186;-64
2023/03/15 10:39:30;;;;;;;2.70;2.50;;;10.50;99.90;;;;;;5065946;28;20189;-65
2023/03/15 10:41:56;;;;;;;2.70;2.50;;;10.50;99.90;;;;;;5068241;28;20185;-64
2023/03/15 10:44:24;;;;;;;2.53;2.33;;;10.60;99.90;;;;;;5047665;28;20633;-65
2023/03/15 10:47:06;;;;;;;4.28;2.20;;;10.50;99.90;;;;;;5055800;28;20576;-64
2023/03/15 10:49:40;;;;;;;2.53;1.92;;;10.60;99.90;;;;;;5074423;28;20195;-65
2023/03/15 10:52:23;;;;;;;3.38;2.03;;;10.70;99.90;;;;;;5060244;28;20205;-65
2023/03/15 10:54:51;;;;;;;2.67;1.98;;;10.90;99.90;;;;;;5070971;28;20260;-65
2023/03/15 10:57:20;;;;;;;3.35;2.72;;;11.00;99.90;;;;;;5071027;28;20177;-65
2023/03/15 10:59:58;;;;;;;4.82;2.60;;;11.10;99.90;;;;;;5054905;28;20174;-65
2023/03/15 11:02:25;;;;;;;2.72;2.50;;;11.20;99.90;;;;;;5067942;28;20181;-65
2023/03/15 11:05:14;;;;;;;4.45;2.45;;;11.20;99.90;;;;;;5074283;28;20177;-65
2023/03/15 11:07:57;;;;;;;2.60;2.30;;;11.20;99.90;;;;;;5051433;28;20749;-65
2023/03/15 11:10:26;;;;;;;2.30;2.10;;;10.80;99.90;;;;;;5048866;28;20177;-64
2023/03/15 11:13:22;;;;;;;2.08;1.95;;;10.80;99.90;;;;;;5041156;28;20521;-64
2023/03/15 11:15:53;;;;;;;2.20;2.10;;;10.80;99.90;;;;;;5048251;28;20175;-64
2023/03/15 11:18:34;;;;;;;3.38;2.03;;;10.60;99.90;;;;;;5046137;28;20184;-66
2023/03/15 11:21:07;;;;;;;2.47;2.28;;;10.50;99.90;;;;;;5022949;28;20262;-65
2023/03/15 11:23:36;;;;;;;2.63;2.42;;;10.40;99.90;;;;;;5043862;28;20187;-65
2023/03/15 11:26:03;;;;;;;2.58;2.38;;;10.20;99.90;;;;;;5038042;28;20265;-63
2023/03/15 11:28:31;;;;;;;3.67;2.67;;;10.30;99.90;;;;;;5044207;28;20191;-64
2023/03/15 11:30:59;;;;;;;3.80;3.40;;;10.00;99.90;;;;;;5034323;28;20244;-64
2023/03/15 11:33:50;;;;;;;4.40;3.17;;;9.90;99.90;;;;;;5051376;28;20217;-65
2023/03/15 11:36:21;;;;;;;3.47;3.17;;;9.90;99.90;;;;;;5035302;28;20185;-65
2023/03/15 11:38:48;;;;;;;4.68;3.25;;;9.90;99.90;;;;;;5034076;28;20217;-65
2023/03/15 11:41:21;;;;;;;3.20;2.90;;;10.00;99.90;;;;;;5043507;28;20178;-66
2023/03/15 11:44:11;;;;;;;4.20;3.40;;;9.70;99.90;;;;;;5033698;28;20171;-65
2023/03/15 11:46:48;;;;;;;6.80;3.72;;;9.60;99.90;;;;;;5030524;28;20550;-66
2023/03/15 11:49:28;;;;;;;4.67;3.50;;;9.20;99.90;;;;;;5034546;28;20228;-63
2023/03/15 11:51:55;;;;;;;3.60;3.30;;;9.00;99.90;;;;;;5033290;28;20260;-63
2023/03/15 11:54:23;;;;;;;4.60;3.13;;;9.00;99.90;;;;;;5041607;28;20205;-66
2023/03/15 11:56:55;;;;;;;3.27;2.97;;;9.00;99.90;;;;;;5034384;28;20196;-65
2023/03/15 11:59:37;;;;;;;3.47;3.17;;;9.20;99.90;;;;;;5047571;28;20179;-63
2023/03/15 12:02:09;;;;;;;7.50;4.03;;;9.00;99.90;;;;;;5027853;28;20659;-63
2023/03/15 12:04:34;;;;;;;5.27;3.23;;;9.10;99.90;;;;;;5046330;28;20187;-63
2023/03/15 12:07:11;;;;;;;5.13;4.07;;;9.30;99.90;;;;;;5047626;28;20313;-71
2023/03/15 12:09:39;;;;;;;4.47;3.90;;;9.50;99.90;;;;;;5048119;28;20178;-65
2023/03/15 12:12:23;;;;;;;4.87;3.13;;;9.80;99.90;;;;;;5036097;28;20213;-65
2023/03/15 12:15:12;;;;;;;4.13;3.33;;;9.90;99.90;;;;;;5034944;28;20184;-64
2023/03/15 12:17:42;;;;;;;3.67;3.43;;;9.90;99.90;;;;;;5035790;28;20185;-64
2023/03/15 12:20:18;;;;;;;3.97;3.43;;;10.10;99.90;;;;;;5035142;28;20193;-65
2023/03/15 12:22:53;;;;;;;5.37;4.00;;;9.70;99.90;;;;;;5037708;28;20181;-64
2023/03/15 12:25:39;;;;;;;4.87;3.80;;;9.70;99.90;;;;;;5034884;28;20181;-64
2023/03/15 12:28:18;;;;;;;3.40;3.13;;;10.00;99.90;;;;;;5037077;28;20174;-65
2023/03/15 12:30:50;;;;;;;3.93;3.57;;;10.30;99.90;;;;;;5038000;28;20189;-65
2023/03/15 12:33:21;;;;;;;6.07;3.57;;;10.50;99.90;;;;;;5024265;28;20229;-65
2023/03/15 12:35:48;;;;;;;3.40;3.10;;;10.70;99.90;;;;;;5038233;28;20237;-65
2023/03/15 12:38:20;;;;;;;3.50;3.20;;;10.60;99.90;;;;;;5017904;28;20197;-66
2023/03/15 12:40:54;;;;;;;6.23;3.70;;;10.30;99.90;;;;;;5039915;28;20257;-65
2023/03/15 12:43:44;;;;;;;3.20;2.77;;;10.20;99.90;;;;;;5037392;28;20186;-64
2023/03/15 12:46:45;;;;;;;6.20;3.77;;;10.10;99.90;;;;;;5044915;28;20191;-64
2023/03/15 12:49:12;;;;;;;3.83;3.13;;;10.20;99.90;;;;;;4950184;28;20241;-65
2023/03/15 12:52:10;;;;;;;3.83;3.53;;;10.00;99.90;;;;;;5024319;28;20585;-65
2023/03/15 12:55:10;;;;;;;4.90;3.37;;;10.00;99.90;;;;;;5033880;28;20226;-65
2023/03/15 12:57:43;;;;;;;5.73;3.60;;;10.30;99.90;;;;;;5028090;28;20244;-66
2023/03/15 13:00:24;;;;;;;3.07;2.77;;;10.50;99.90;;;;;;5034237;28;20240;-65
2023/03/15 13:03:04;;;;;;;5.50;3.60;;;10.60;99.90;;;;;;5038396;28;20239;-64